createdAt,value
2022-09-23T00:00:29.442Z,11.21
2022-09-23T00:01:29.470Z,11.23
2022-09-23T00:02:29.451Z,11.21
2022-09-23T00:03:29.370Z,11.16
2022-09-23T00:04:29.366Z,11.19
2022-09-23T00:05:29.356Z,11.17
2022-09-23T00:06:29.335Z,11.02
2022-09-23T00:07:29.334Z,11.02
2022-09-23T00:08:29.284Z,11.03
2022-09-23T00:09:29.312Z,11.02
2022-09-23T00:10:29.276Z,10.98
2022-09-23T00:11:29.267Z,10.98
2022-09-23T00:12:29.208Z,11.05
2022-09-23T00:13:29.202Z,11.02
2022-09-23T00:14:29.204Z,10.98
2022-09-23T00:15:29.202Z,11.02
2022-09-23T00:16:29.219Z,10.99
2022-09-23T00:17:29.143Z,10.98
2022-09-23T00:18:29.155Z,10.98
2022-09-23T00:19:29.085Z,11.02
2022-09-23T00:20:29.121Z,10.95
2022-09-23T00:21:29.151Z,10.99
2022-09-23T00:22:29.040Z,10.95
2022-09-23T00:23:29.019Z,10.93
2022-09-23T00:24:29.039Z,10.98
2022-09-23T00:25:29.022Z,10.91
2022-09-23T00:26:28.986Z,10.95
2022-09-23T00:27:28.967Z,10.84
2022-09-23T00:28:28.943Z,10.84
2022-09-23T00:29:28.950Z,10.86
2022-09-23T00:30:28.968Z,10.72
2022-09-23T00:31:28.896Z,10.73
2022-09-23T00:32:28.876Z,10.76
2022-09-23T00:33:28.862Z,10.66
2022-09-23T00:34:28.885Z,10.73
2022-09-23T00:35:28.831Z,10.78
2022-09-23T00:36:28.797Z,10.73
2022-09-23T00:37:28.800Z,10.76
2022-09-23T00:38:28.785Z,10.78
2022-09-23T00:39:28.774Z,10.80
2022-09-23T00:40:28.758Z,10.78
2022-09-23T00:41:28.717Z,10.78
2022-09-23T00:42:28.711Z,10.69
2022-09-23T00:43:28.685Z,10.76
2022-09-23T00:44:28.692Z,10.75
2022-09-23T00:45:28.640Z,10.69
2022-09-23T00:46:28.691Z,10.69
2022-09-23T00:47:28.604Z,10.66
2022-09-23T00:48:28.591Z,10.66
2022-09-23T00:49:28.623Z,10.73
2022-09-23T00:50:28.584Z,10.69
2022-09-23T00:51:28.537Z,10.70
2022-09-23T00:52:28.541Z,10.66
2022-09-23T00:53:28.499Z,10.62
2022-09-23T00:54:28.515Z,10.58
2022-09-23T00:55:28.558Z,10.60
2022-09-23T00:56:28.461Z,10.72
2022-09-23T00:57:28.438Z,10.70
2022-09-23T00:58:28.430Z,10.66
2022-09-23T00:59:28.434Z,10.58
2022-09-23T01:00:28.383Z,10.72
2022-09-23T01:01:28.423Z,10.65
2022-09-23T01:02:28.480Z,10.60
2022-09-23T01:03:28.342Z,10.60
2022-09-23T01:04:28.354Z,10.51
2022-09-23T01:05:28.317Z,10.58
2022-09-23T01:06:28.278Z,10.65
2022-09-23T01:07:28.284Z,10.63
2022-09-23T01:08:28.288Z,10.49
2022-09-23T01:09:28.289Z,10.52
2022-09-23T01:10:28.216Z,10.44
2022-09-23T01:11:28.198Z,10.62
2022-09-23T01:12:28.187Z,10.49
2022-09-23T01:13:28.177Z,10.51
2022-09-23T01:14:28.219Z,10.46
2022-09-23T01:15:28.146Z,10.51
2022-09-23T01:16:28.226Z,10.57
2022-09-23T01:17:28.097Z,10.52
2022-09-23T01:18:28.096Z,10.46
2022-09-23T01:19:28.095Z,10.51
2022-09-23T01:20:28.059Z,10.42
2022-09-23T01:21:28.026Z,10.46
2022-09-23T01:22:28.024Z,10.51
2022-09-23T01:23:27.988Z,10.43
2022-09-23T01:24:28.030Z,10.43
2022-09-23T01:25:27.961Z,10.39
2022-09-23T01:26:27.958Z,10.44
2022-09-23T01:27:27.958Z,10.52
2022-09-23T01:28:27.916Z,10.47
2022-09-23T01:29:27.938Z,10.49
2022-09-23T01:30:27.902Z,10.44
2022-09-23T01:31:27.880Z,10.32
2022-09-23T01:32:27.853Z,10.38
2022-09-23T01:33:27.837Z,10.43
2022-09-23T01:34:27.852Z,10.52
2022-09-23T01:35:27.806Z,10.29
2022-09-23T01:36:27.779Z,10.36
2022-09-23T01:37:27.774Z,10.39
2022-09-23T01:38:27.884Z,10.46
2022-09-23T01:39:27.753Z,10.39
2022-09-23T01:40:27.764Z,10.35
2022-09-23T01:41:27.701Z,10.44
2022-09-23T01:42:27.671Z,10.42
2022-09-23T01:43:27.652Z,10.38
2022-09-23T01:44:27.674Z,10.32
2022-09-23T01:45:27.631Z,10.35
2022-09-23T01:46:27.613Z,10.26
2022-09-23T01:47:27.583Z,10.34
2022-09-23T01:48:27.747Z,10.25
2022-09-23T01:49:27.587Z,10.24
2022-09-23T01:50:27.550Z,10.29
2022-09-23T01:51:27.522Z,10.25
2022-09-23T01:52:27.511Z,10.18
2022-09-23T01:53:27.521Z,10.18
2022-09-23T01:54:27.470Z,10.18
2022-09-23T01:55:27.491Z,10.11
2022-09-23T01:56:27.446Z,10.09
2022-09-23T01:57:27.440Z,10.06
2022-09-23T01:58:27.393Z,10.09
2022-09-23T01:59:27.454Z,10.16
2022-09-23T02:00:27.378Z,10.04
2022-09-23T02:01:27.405Z,10.01
2022-09-23T02:02:27.403Z,9.98
2022-09-23T02:03:27.330Z,10.04
2022-09-23T02:04:27.358Z,10.04
2022-09-23T02:05:27.308Z,10.06
2022-09-23T02:06:27.295Z,10.04
2022-09-23T02:07:27.292Z,10.02
2022-09-23T02:08:27.232Z,10.02
2022-09-23T02:09:27.309Z,10.07
2022-09-23T02:10:27.198Z,9.95
2022-09-23T02:11:27.190Z,10.04
2022-09-23T02:12:27.207Z,9.98
2022-09-23T02:13:27.157Z,10.04
2022-09-23T02:14:27.161Z,10.10
2022-09-23T02:15:27.141Z,10.04
2022-09-23T02:16:27.149Z,9.93
2022-09-23T02:17:27.089Z,9.99
2022-09-23T02:18:27.084Z,10.02
2022-09-23T02:19:27.093Z,10.04
2022-09-23T02:20:27.056Z,9.96
2022-09-23T02:21:27.030Z,9.93
2022-09-23T02:22:27.002Z,9.93
2022-09-23T02:23:27.013Z,9.98
2022-09-23T02:24:27.014Z,9.88
2022-09-23T02:25:26.957Z,9.85
2022-09-23T02:26:26.950Z,9.89
2022-09-23T02:27:26.931Z,9.95
2022-09-23T02:28:26.912Z,9.99
2022-09-23T02:29:26.954Z,10.04
2022-09-23T02:30:26.864Z,10.02
2022-09-23T02:31:26.894Z,9.92
2022-09-23T02:32:26.829Z,9.89
2022-09-23T02:33:26.831Z,9.83
2022-09-23T02:34:26.839Z,9.85
2022-09-23T02:35:26.823Z,9.88
2022-09-23T02:36:26.781Z,9.86
2022-09-23T02:37:26.739Z,9.86
2022-09-23T02:38:26.730Z,9.88
2022-09-23T02:39:26.764Z,9.92
2022-09-23T02:40:26.754Z,9.89
2022-09-23T02:41:26.691Z,9.96
2022-09-23T02:42:26.667Z,9.96
2022-09-23T02:43:26.630Z,9.92
2022-09-23T02:44:26.660Z,9.89
2022-09-23T02:45:26.701Z,9.95
2022-09-23T02:46:26.604Z,9.93
2022-09-23T02:47:26.582Z,9.86
2022-09-23T02:48:26.604Z,9.91
2022-09-23T02:49:26.586Z,9.86
2022-09-23T02:50:26.578Z,9.86
2022-09-23T02:51:26.598Z,9.91
2022-09-23T02:52:26.494Z,9.80
2022-09-23T02:53:26.490Z,9.83
2022-09-23T02:54:26.515Z,9.91
2022-09-23T02:55:26.460Z,9.92
2022-09-23T02:56:26.440Z,9.86
2022-09-23T02:57:26.418Z,9.80
2022-09-23T02:58:26.410Z,9.88
2022-09-23T02:59:26.402Z,9.83
2022-09-23T03:00:26.381Z,9.83
2022-09-23T03:01:26.480Z,9.85
2022-09-23T03:02:26.378Z,9.85
2022-09-23T03:03:26.306Z,9.85
2022-09-23T03:04:26.288Z,9.86
2022-09-23T03:05:26.289Z,9.93
2022-09-23T03:06:26.244Z,9.74
2022-09-23T03:07:26.227Z,9.85
2022-09-23T03:08:26.204Z,9.88
2022-09-23T03:09:26.192Z,9.92
2022-09-23T03:10:26.202Z,9.88
2022-09-23T03:11:26.172Z,9.77
2022-09-23T03:12:26.170Z,9.86
2022-09-23T03:13:29.253Z,9.78
2022-09-23T03:14:27.117Z,9.92
2022-09-23T03:15:26.131Z,9.88
2022-09-23T03:16:26.106Z,9.73
2022-09-23T03:17:26.049Z,9.83
2022-09-23T03:18:26.063Z,9.83
2022-09-23T03:19:26.023Z,9.77
2022-09-23T03:20:27.053Z,9.74
2022-09-23T03:21:26.009Z,9.89
2022-09-23T03:22:25.983Z,9.81
2022-09-23T03:23:25.963Z,9.91
2022-09-23T03:24:25.945Z,9.74
2022-09-23T03:25:25.962Z,9.74
2022-09-23T03:26:25.915Z,9.70
2022-09-23T03:27:25.911Z,9.71
2022-09-23T03:28:25.883Z,9.80
2022-09-23T03:29:25.864Z,9.73
2022-09-23T03:30:25.888Z,9.80
2022-09-23T03:31:25.928Z,9.81
2022-09-23T03:32:25.811Z,9.88
2022-09-23T03:33:28.701Z,9.80
2022-09-23T03:34:26.773Z,9.86
2022-09-23T03:35:25.807Z,9.80
2022-09-23T03:36:25.761Z,9.75
2022-09-23T03:37:25.741Z,9.91
2022-09-23T03:38:25.724Z,9.88
2022-09-23T03:39:25.682Z,9.80
2022-09-23T03:40:25.775Z,9.86
2022-09-23T03:41:25.660Z,9.88
2022-09-23T03:42:25.656Z,9.91
2022-09-23T03:43:25.648Z,9.81
2022-09-23T03:44:25.625Z,9.88
2022-09-23T03:45:25.656Z,9.83
2022-09-23T03:46:25.577Z,9.75
2022-09-23T03:47:25.598Z,9.70
2022-09-23T03:48:25.556Z,9.81
2022-09-23T03:49:25.537Z,9.70
2022-09-23T03:50:25.567Z,9.68
2022-09-23T03:51:25.519Z,9.86
2022-09-23T03:52:25.482Z,9.86
2022-09-23T03:53:25.469Z,9.86
2022-09-23T03:54:25.467Z,9.88
2022-09-23T03:55:25.480Z,9.80
2022-09-23T03:56:25.404Z,9.86
2022-09-23T03:57:25.405Z,9.86
2022-09-23T03:58:25.400Z,9.93
2022-09-23T03:59:25.370Z,9.78
2022-09-23T04:00:25.368Z,9.75
2022-09-23T04:01:25.382Z,9.75
2022-09-23T04:02:25.414Z,9.75
2022-09-23T04:03:25.291Z,9.77
2022-09-23T04:04:25.257Z,9.86
2022-09-23T04:05:25.301Z,9.89
2022-09-23T04:06:25.234Z,9.93
2022-09-23T04:07:25.221Z,9.89
2022-09-23T04:08:25.213Z,9.91
2022-09-23T04:09:25.186Z,9.86
2022-09-23T04:10:25.228Z,9.85
2022-09-23T04:11:25.154Z,9.83
2022-09-23T04:12:25.161Z,9.85
2022-09-23T04:13:25.107Z,9.88
2022-09-23T04:14:25.101Z,9.91
2022-09-23T04:15:25.114Z,9.85
2022-09-23T04:16:25.127Z,9.86
2022-09-23T04:17:25.041Z,9.89
2022-09-23T04:18:25.027Z,9.92
2022-09-23T04:19:26.018Z,9.91
2022-09-23T04:20:25.048Z,9.86
2022-09-23T04:21:25.001Z,9.81
2022-09-23T04:22:24.963Z,9.75
2022-09-23T04:23:24.995Z,9.78
2022-09-23T04:24:24.931Z,9.91
2022-09-23T04:25:24.930Z,9.85
2022-09-23T04:26:24.887Z,9.85
2022-09-23T04:27:24.870Z,9.83
2022-09-23T04:28:24.864Z,9.74
2022-09-23T04:29:24.896Z,9.85
2022-09-23T04:30:24.866Z,9.85
2022-09-23T04:31:24.908Z,9.85
2022-09-23T04:32:24.849Z,9.83
2022-09-23T04:33:24.793Z,9.86
2022-09-23T04:34:24.781Z,9.77
2022-09-23T04:35:24.804Z,9.78
2022-09-23T04:36:24.724Z,9.89
2022-09-23T04:37:24.714Z,9.88
2022-09-23T04:38:24.708Z,9.77
2022-09-23T04:39:24.697Z,9.75
2022-09-23T04:40:24.762Z,9.81
2022-09-23T04:41:24.650Z,9.78
2022-09-23T04:42:24.651Z,9.78
2022-09-23T04:43:24.634Z,9.70
2022-09-23T04:44:24.609Z,9.75
2022-09-23T04:45:24.615Z,9.78
2022-09-23T04:46:24.660Z,9.68
2022-09-23T04:47:24.553Z,9.78
2022-09-23T04:48:24.541Z,9.81
2022-09-23T04:49:24.529Z,9.80
2022-09-23T04:50:24.534Z,9.83
2022-09-23T04:51:24.513Z,9.85
2022-09-23T04:52:24.449Z,9.73
2022-09-23T04:53:25.445Z,9.83
2022-09-23T04:54:24.434Z,9.88
2022-09-23T04:55:24.441Z,9.81
2022-09-23T04:56:24.396Z,9.85
2022-09-23T04:57:24.392Z,9.85
2022-09-23T04:58:24.357Z,9.77
2022-09-23T04:59:24.346Z,9.92
2022-09-23T05:00:24.360Z,9.83
2022-09-23T05:01:24.402Z,9.85
2022-09-23T05:02:24.339Z,9.93
2022-09-23T05:03:24.278Z,9.86
2022-09-23T05:04:24.264Z,9.83
2022-09-23T05:05:24.293Z,9.92
2022-09-23T05:06:24.231Z,10.10
2022-09-23T05:07:24.196Z,9.99
2022-09-23T05:08:24.208Z,9.95
2022-09-23T05:09:24.173Z,10.04
2022-09-23T05:10:24.199Z,10.02
2022-09-23T05:11:24.133Z,10.14
2022-09-23T05:12:24.148Z,10.10
2022-09-23T05:13:24.127Z,10.17
2022-09-23T05:14:24.112Z,10.17
2022-09-23T05:15:24.158Z,10.18
2022-09-23T05:16:24.198Z,10.20
2022-09-23T05:17:24.043Z,10.25
2022-09-23T05:18:24.019Z,10.22
2022-09-23T05:19:24.042Z,10.29
2022-09-23T05:20:24.067Z,10.36
2022-09-23T05:21:24.037Z,10.32
2022-09-23T05:22:23.951Z,10.39
2022-09-23T05:23:23.940Z,10.35
2022-09-23T05:24:23.953Z,10.32
2022-09-23T05:25:23.936Z,10.47
2022-09-23T05:26:23.889Z,10.44
2022-09-23T05:27:23.869Z,10.63
2022-09-23T05:28:23.854Z,10.80
2022-09-23T05:29:23.836Z,11.02
2022-09-23T05:30:23.843Z,11.19
2022-09-23T05:31:23.980Z,11.30
2022-09-23T05:32:23.836Z,11.78
2022-09-23T05:33:23.762Z,12.03
2022-09-23T05:34:23.769Z,12.33
2022-09-23T05:35:23.767Z,12.37
2022-09-23T05:36:23.731Z,12.49
2022-09-23T05:37:23.694Z,12.81
2022-09-23T05:38:23.682Z,13.06
2022-09-23T05:39:23.665Z,13.46
2022-09-23T05:40:23.736Z,13.76
2022-09-23T05:41:23.632Z,13.94
2022-09-23T05:42:23.625Z,14.02
2022-09-23T05:43:23.625Z,14.13
2022-09-23T05:44:23.586Z,14.23
2022-09-23T05:45:24.317Z,14.41
2022-09-23T05:46:23.621Z,14.49
2022-09-23T05:47:23.557Z,14.42
2022-09-23T05:48:23.507Z,14.34
2022-09-23T05:49:33.225Z,14.27
2022-09-23T05:50:25.510Z,14.12
2022-09-23T05:51:25.524Z,14.02
2022-09-23T05:52:24.453Z,13.80
2022-09-23T05:53:23.433Z,13.62
2022-09-23T05:54:23.412Z,13.69
2022-09-23T05:55:23.433Z,13.72
2022-09-23T05:56:23.393Z,13.93
2022-09-23T05:57:23.357Z,14.29
2022-09-23T05:58:23.366Z,14.82
2022-09-23T05:59:23.382Z,15.13
2022-09-23T06:00:23.356Z,15.38
2022-09-23T06:01:23.314Z,15.55
2022-09-23T06:02:23.345Z,15.60
2022-09-23T06:03:23.348Z,15.84
2022-09-23T06:04:23.263Z,15.91
2022-09-23T06:05:23.278Z,16.18
2022-09-23T06:06:23.266Z,16.77
2022-09-23T06:07:23.203Z,17.15
2022-09-23T06:08:23.191Z,17.51
2022-09-23T06:09:23.179Z,17.81
2022-09-23T06:10:23.186Z,18.20
2022-09-23T06:11:23.196Z,18.19
2022-09-23T06:12:23.110Z,18.21
2022-09-23T06:13:23.232Z,18.20
2022-09-23T06:14:23.092Z,18.38
2022-09-23T06:15:23.103Z,18.66
2022-09-23T06:16:23.103Z,18.83
2022-09-23T06:17:23.029Z,18.97
2022-09-23T06:18:23.016Z,19.13
2022-09-23T06:19:22.997Z,19.05
2022-09-23T06:20:23.036Z,19.17
2022-09-23T06:21:22.960Z,19.21
2022-09-23T06:22:22.939Z,19.30
2022-09-23T06:23:26.347Z,19.42
2022-09-23T06:24:28.588Z,19.35
2022-09-23T06:25:24.934Z,19.32
2022-09-23T06:26:22.865Z,19.12
2022-09-23T06:27:22.901Z,18.83
2022-09-23T06:28:22.817Z,18.49
2022-09-23T06:29:22.823Z,18.57
2022-09-23T06:30:22.840Z,18.64
2022-09-23T06:31:22.936Z,18.68
2022-09-23T06:32:22.759Z,18.64
2022-09-23T06:33:32.446Z,18.69
2022-09-23T06:34:24.744Z,18.75
2022-09-23T06:35:27.435Z,18.60
2022-09-23T06:36:40.339Z,18.39
2022-09-23T06:37:24.709Z,17.95
2022-09-23T06:38:22.665Z,17.86
2022-09-23T06:39:22.677Z,17.55
2022-09-23T06:40:22.775Z,17.36
2022-09-23T06:41:22.608Z,17.07
2022-09-23T06:42:22.611Z,17.03
2022-09-23T06:43:22.595Z,16.88
2022-09-23T06:44:22.578Z,16.67
2022-09-23T06:45:22.587Z,16.40
2022-09-23T06:46:22.565Z,16.18
2022-09-23T06:47:22.524Z,16.03
2022-09-23T06:48:22.548Z,15.88
2022-09-23T06:49:22.484Z,15.60
2022-09-23T06:50:22.510Z,15.58
2022-09-23T06:51:22.485Z,15.11
2022-09-23T06:52:22.480Z,15.03
2022-09-23T06:53:22.417Z,14.94
2022-09-23T06:54:22.405Z,14.91
2022-09-23T06:55:22.472Z,14.93
2022-09-23T06:56:22.424Z,14.98
2022-09-23T06:57:22.447Z,14.95
2022-09-23T06:58:22.348Z,14.86
2022-09-23T06:59:22.301Z,14.74
2022-09-23T07:00:22.360Z,14.87
2022-09-23T07:01:22.383Z,14.97
2022-09-23T07:02:22.354Z,14.86
2022-09-23T07:03:22.242Z,14.71
2022-09-23T07:04:24.109Z,15.03
2022-09-23T07:05:23.224Z,15.22
2022-09-23T07:06:22.175Z,15.46
2022-09-23T07:07:22.156Z,15.76
2022-09-23T07:08:22.162Z,16.07
2022-09-23T07:09:22.123Z,16.52
2022-09-23T07:10:22.146Z,17.17
2022-09-23T07:11:22.083Z,17.70
2022-09-23T07:12:22.075Z,18.16
2022-09-23T07:13:22.089Z,18.38
2022-09-23T07:14:22.039Z,18.72
2022-09-23T07:15:22.052Z,18.96
2022-09-23T07:16:22.061Z,19.45
2022-09-23T07:17:22.010Z,19.92
2022-09-23T07:18:21.972Z,20.23
2022-09-23T07:19:21.949Z,20.57
2022-09-23T07:20:22.024Z,21.03
2022-09-23T07:21:21.928Z,21.43
2022-09-23T07:22:21.902Z,21.70
2022-09-23T07:23:21.896Z,21.48
2022-09-23T07:24:21.880Z,21.26
2022-09-23T07:25:21.878Z,21.53
2022-09-23T07:26:21.847Z,21.58
2022-09-23T07:27:21.814Z,21.94
2022-09-23T07:28:21.800Z,22.20
2022-09-23T07:29:21.788Z,22.31
2022-09-23T07:30:25.321Z,22.26
2022-09-23T07:31:35.650Z,22.49
2022-09-23T07:32:23.782Z,22.64
2022-09-23T07:33:31.448Z,22.82
2022-09-23T07:34:23.720Z,22.94
2022-09-23T07:35:21.735Z,22.82
2022-09-23T07:36:21.678Z,22.81
2022-09-23T07:37:21.644Z,22.99
2022-09-23T07:38:21.640Z,23.11
2022-09-23T07:39:21.626Z,23.38
2022-09-23T07:40:21.684Z,23.72
2022-09-23T07:41:21.598Z,23.53
2022-09-23T07:42:21.570Z,23.63
2022-09-23T07:43:21.565Z,23.90
2022-09-23T07:44:21.607Z,24.09
2022-09-23T07:45:21.579Z,24.16
2022-09-23T07:46:21.535Z,23.74
2022-09-23T07:47:21.507Z,23.41
2022-09-23T07:48:21.514Z,23.37
2022-09-23T07:49:21.483Z,23.26
2022-09-23T07:50:21.483Z,23.23
2022-09-23T07:51:21.460Z,23.54
2022-09-23T07:52:21.444Z,23.60
2022-09-23T07:53:21.423Z,23.63
2022-09-23T07:54:21.408Z,23.97
2022-09-23T07:55:21.413Z,24.15
2022-09-23T07:56:21.400Z,24.42
2022-09-23T07:57:21.361Z,24.80
2022-09-23T07:58:21.374Z,25.23
2022-09-23T07:59:21.317Z,25.59
2022-09-23T08:00:21.338Z,25.39
2022-09-23T08:01:21.329Z,25.57
2022-09-23T08:02:21.316Z,25.42
2022-09-23T08:03:21.292Z,25.45
2022-09-23T08:04:21.276Z,25.30
2022-09-23T08:05:21.231Z,25.35
2022-09-23T08:06:21.217Z,25.38
2022-09-23T08:07:21.191Z,24.93
2022-09-23T08:08:21.188Z,24.93
2022-09-23T08:09:21.207Z,24.82
2022-09-23T08:10:21.155Z,24.46
2022-09-23T08:11:21.156Z,24.31
2022-09-23T08:12:21.160Z,24.04
2022-09-23T08:13:21.097Z,23.81
2022-09-23T08:14:21.165Z,23.68
2022-09-23T08:15:21.069Z,23.50
2022-09-23T08:16:21.086Z,23.67
2022-09-23T08:17:21.047Z,23.75
2022-09-23T08:18:21.044Z,23.82
2022-09-23T08:19:21.045Z,23.89
2022-09-23T08:20:21.020Z,23.71
2022-09-23T08:21:20.985Z,24.05
2022-09-23T08:22:20.988Z,24.11
2022-09-23T08:23:20.978Z,23.97
2022-09-23T08:24:20.944Z,24.26
2022-09-23T08:25:22.642Z,24.15
2022-09-23T08:26:22.554Z,24.21
2022-09-23T08:27:21.932Z,24.34
2022-09-23T08:28:20.871Z,24.67
2022-09-23T08:29:20.869Z,24.97
2022-09-23T08:30:20.876Z,24.99
2022-09-23T08:31:20.870Z,24.99
2022-09-23T08:32:20.813Z,25.01
2022-09-23T08:33:23.407Z,24.98
2022-09-23T08:34:21.804Z,24.99
2022-09-23T08:35:20.811Z,25.14
2022-09-23T08:36:20.765Z,25.54
2022-09-23T08:37:20.748Z,25.39
2022-09-23T08:38:20.773Z,25.29
2022-09-23T08:39:20.854Z,25.39
2022-09-23T08:40:20.745Z,25.82
2022-09-23T08:41:20.705Z,26.06
2022-09-23T08:42:20.670Z,25.81
2022-09-23T08:43:20.670Z,25.82
2022-09-23T08:44:20.632Z,26.35
2022-09-23T08:45:20.644Z,26.19
2022-09-23T08:46:20.733Z,25.98
2022-09-23T08:47:20.579Z,25.53
2022-09-23T08:48:20.576Z,25.60
2022-09-23T08:49:20.549Z,25.46
2022-09-23T08:50:20.662Z,25.63
2022-09-23T08:51:20.522Z,25.48
2022-09-23T08:52:20.479Z,25.75
2022-09-23T08:53:20.525Z,25.98
2022-09-23T08:54:20.456Z,25.53
2022-09-23T08:55:20.467Z,25.46
2022-09-23T08:56:20.419Z,25.20
2022-09-23T08:57:20.402Z,25.24
2022-09-23T08:58:25.271Z,25.34
2022-09-23T08:59:22.386Z,24.93
2022-09-23T09:00:20.437Z,24.55
2022-09-23T09:01:20.391Z,24.80
2022-09-23T09:02:20.404Z,25.16
2022-09-23T09:03:20.300Z,25.08
2022-09-23T09:04:20.317Z,24.87
2022-09-23T09:05:20.308Z,24.94
2022-09-23T09:06:20.260Z,25.26
2022-09-23T09:07:37.023Z,25.09
2022-09-23T09:08:22.245Z,25.51
2022-09-23T09:09:20.229Z,25.78
2022-09-23T09:10:20.329Z,26.11
2022-09-23T09:11:20.185Z,26.34
2022-09-23T09:12:20.167Z,26.19
2022-09-23T09:13:20.155Z,25.82
2022-09-23T09:14:20.144Z,25.74
2022-09-23T09:15:20.208Z,25.39
2022-09-23T09:16:31.700Z,25.61
2022-09-23T09:17:22.091Z,25.72
2022-09-23T09:18:20.094Z,25.60
2022-09-23T09:19:20.057Z,25.51
2022-09-23T09:20:20.110Z,25.27
2022-09-23T09:21:20.049Z,25.64
2022-09-23T09:22:20.015Z,25.78
2022-09-23T09:23:20.031Z,25.75
2022-09-23T09:24:19.970Z,25.96
2022-09-23T09:25:19.994Z,26.23
2022-09-23T09:26:19.945Z,26.09
2022-09-23T09:27:19.939Z,26.13
2022-09-23T09:28:19.903Z,26.08
2022-09-23T09:29:36.398Z,26.28
2022-09-23T09:30:21.915Z,26.46
2022-09-23T09:31:19.997Z,26.64
2022-09-23T09:32:19.865Z,26.38
2022-09-23T09:33:19.839Z,26.41
2022-09-23T09:34:19.816Z,26.66
2022-09-23T09:35:19.847Z,26.73
2022-09-23T09:36:19.789Z,26.76
2022-09-23T09:37:19.769Z,26.87
2022-09-23T09:38:19.764Z,26.60
2022-09-23T09:39:24.099Z,26.94
2022-09-23T09:40:21.801Z,27.43
2022-09-23T09:41:19.702Z,27.61
2022-09-23T09:42:19.687Z,27.77
2022-09-23T09:43:19.668Z,27.48
2022-09-23T09:44:19.651Z,27.39
2022-09-23T09:45:20.013Z,27.69
2022-09-23T09:46:20.678Z,27.78
2022-09-23T09:47:19.621Z,27.86
2022-09-23T09:48:19.678Z,27.72
2022-09-23T09:49:19.583Z,27.90
2022-09-23T09:50:19.591Z,27.66
2022-09-23T09:51:19.558Z,27.80
2022-09-23T09:52:19.555Z,27.80
2022-09-23T09:53:19.469Z,27.83
2022-09-23T09:54:19.459Z,27.80
2022-09-23T09:55:19.474Z,27.63
2022-09-23T09:56:19.430Z,27.48
2022-09-23T09:57:19.397Z,27.52
2022-09-23T09:58:19.386Z,27.71
2022-09-23T09:59:19.365Z,27.46
2022-09-23T10:00:19.397Z,27.42
2022-09-23T10:01:19.381Z,27.27
2022-09-23T10:02:19.313Z,27.48
2022-09-23T10:03:19.312Z,27.39
2022-09-23T10:04:19.308Z,27.09
2022-09-23T10:05:19.302Z,26.86
2022-09-23T10:06:19.257Z,27.21
2022-09-23T10:07:19.264Z,27.30
2022-09-23T10:08:19.247Z,27.27
2022-09-23T10:09:19.340Z,27.01
2022-09-23T10:10:31.950Z,26.88
2022-09-23T10:11:21.184Z,26.83
2022-09-23T10:12:19.168Z,26.91
2022-09-23T10:13:19.139Z,27.13
2022-09-23T10:14:19.132Z,27.40
2022-09-23T10:15:19.137Z,27.40
2022-09-23T10:16:19.150Z,27.38
2022-09-23T10:17:19.116Z,27.08
2022-09-23T10:18:19.057Z,26.98
2022-09-23T10:19:19.057Z,26.91
2022-09-23T10:20:19.067Z,27.05
2022-09-23T10:21:19.023Z,26.93
2022-09-23T10:22:19.031Z,26.56
2022-09-23T10:23:18.986Z,26.78
2022-09-23T10:24:18.984Z,26.98
2022-09-23T10:25:19.012Z,26.81
2022-09-23T10:26:18.934Z,26.76
2022-09-23T10:27:18.931Z,26.31
2022-09-23T10:28:18.902Z,26.13
2022-09-23T10:29:18.897Z,26.16
2022-09-23T10:30:18.909Z,26.11
2022-09-23T10:31:18.885Z,25.69
2022-09-23T10:32:18.865Z,25.35
2022-09-23T10:33:18.838Z,24.93
2022-09-23T10:34:18.823Z,24.44
2022-09-23T10:35:18.826Z,24.12
2022-09-23T10:36:18.790Z,23.99
2022-09-23T10:37:18.788Z,24.05
2022-09-23T10:38:18.748Z,24.12
2022-09-23T10:39:18.778Z,24.24
2022-09-23T10:40:18.826Z,24.39
2022-09-23T10:41:18.714Z,24.33
2022-09-23T10:42:18.699Z,24.33
2022-09-23T10:43:18.678Z,23.64
2022-09-23T10:44:18.660Z,23.01
2022-09-23T10:45:18.689Z,22.54
2022-09-23T10:46:18.661Z,22.06
2022-09-23T10:47:18.612Z,21.90
2022-09-23T10:48:18.607Z,22.01
2022-09-23T10:49:18.584Z,22.19
2022-09-23T10:50:18.613Z,22.21
2022-09-23T10:51:22.696Z,22.12
2022-09-23T10:52:19.555Z,21.93
2022-09-23T10:53:18.541Z,21.85
2022-09-23T10:54:18.517Z,21.46
2022-09-23T10:55:18.552Z,21.52
2022-09-23T10:56:18.480Z,21.67
2022-09-23T10:57:18.538Z,21.75
2022-09-23T10:58:18.444Z,21.68
2022-09-23T10:59:18.460Z,21.82
2022-09-23T11:00:18.769Z,21.79
2022-09-23T11:01:18.450Z,21.96
2022-09-23T11:02:18.481Z,21.43
2022-09-23T11:03:18.371Z,21.24
2022-09-23T11:04:18.720Z,21.37
2022-09-23T11:05:18.380Z,21.45
2022-09-23T11:06:18.331Z,21.33
2022-09-23T11:07:18.307Z,21.31
2022-09-23T11:08:18.315Z,21.30
2022-09-23T11:09:18.303Z,21.09
2022-09-23T11:10:35.264Z,21.16
2022-09-23T11:11:20.255Z,21.11
2022-09-23T11:12:18.249Z,21.24
2022-09-23T11:13:18.228Z,21.46
2022-09-23T11:14:18.206Z,21.56
2022-09-23T11:15:18.213Z,21.59
2022-09-23T11:16:18.231Z,21.59
2022-09-23T11:17:18.155Z,21.42
2022-09-23T11:18:18.159Z,21.31
2022-09-23T11:19:18.171Z,21.27
2022-09-23T11:20:18.121Z,21.16
2022-09-23T11:21:18.099Z,21.13
2022-09-23T11:22:18.090Z,21.13
2022-09-23T11:23:18.067Z,21.16
2022-09-23T11:24:18.056Z,21.27
2022-09-23T11:25:18.075Z,21.16
2022-09-23T11:26:18.052Z,20.96
2022-09-23T11:27:18.055Z,20.96
2022-09-23T11:28:17.979Z,20.91
2022-09-23T11:29:17.979Z,20.85
2022-09-23T11:30:17.990Z,20.83
2022-09-23T11:31:17.968Z,20.79
2022-09-23T11:32:18.262Z,20.51
2022-09-23T11:33:17.935Z,20.46
2022-09-23T11:34:17.886Z,20.46
2022-09-23T11:35:17.901Z,20.44
2022-09-23T11:36:17.848Z,20.40
2022-09-23T11:37:17.842Z,20.07
2022-09-23T11:38:17.838Z,19.83
2022-09-23T11:39:17.810Z,19.70
2022-09-23T11:40:17.842Z,19.80
2022-09-23T11:41:17.770Z,19.72
2022-09-23T11:42:17.848Z,19.52
2022-09-23T11:43:17.738Z,19.53
2022-09-23T11:44:17.734Z,19.55
2022-09-23T11:45:17.737Z,19.53
2022-09-23T11:46:17.780Z,19.67
2022-09-23T11:47:17.669Z,19.65
2022-09-23T11:48:17.664Z,19.60
2022-09-23T11:49:17.634Z,19.32
2022-09-23T11:50:17.685Z,19.32
2022-09-23T11:51:17.734Z,19.01
2022-09-23T11:52:17.594Z,18.97
2022-09-23T11:53:17.563Z,19.13
2022-09-23T11:54:20.607Z,19.32
2022-09-23T11:55:22.792Z,19.55
2022-09-23T11:56:30.197Z,19.80
2022-09-23T11:57:19.501Z,19.98
2022-09-23T11:58:25.200Z,20.07
2022-09-23T11:59:25.735Z,19.86
2022-09-23T12:00:18.508Z,19.80
2022-09-23T12:01:18.738Z,19.82
2022-09-23T12:02:21.225Z,19.55
2022-09-23T12:03:18.631Z,19.60
2022-09-23T12:04:20.822Z,19.45
2022-09-23T12:05:18.552Z,19.49
2022-09-23T12:06:17.376Z,19.46
2022-09-23T12:07:17.344Z,19.43
2022-09-23T12:08:17.348Z,19.62
2022-09-23T12:09:17.353Z,19.50
2022-09-23T12:10:17.296Z,19.40
2022-09-23T12:11:17.287Z,19.61
2022-09-23T12:12:17.262Z,19.75
2022-09-23T12:13:17.247Z,19.67
2022-09-23T12:14:17.260Z,19.57
2022-09-23T12:15:17.203Z,19.42
2022-09-23T12:16:17.212Z,19.15
2022-09-23T12:17:17.169Z,18.99
2022-09-23T12:18:20.930Z,19.01
2022-09-23T12:19:19.160Z,18.94
2022-09-23T12:20:17.127Z,18.93
2022-09-23T12:21:33.032Z,18.79
2022-09-23T12:22:19.094Z,18.91
2022-09-23T12:23:17.073Z,18.96
2022-09-23T12:24:19.171Z,19.01
2022-09-23T12:25:18.094Z,19.20
2022-09-23T12:26:17.026Z,19.17
2022-09-23T12:27:17.012Z,19.12
2022-09-23T12:28:16.988Z,19.15
2022-09-23T12:29:17.007Z,19.25
2022-09-23T12:30:16.968Z,19.07
2022-09-23T12:31:16.985Z,19.01
2022-09-23T12:32:16.915Z,18.93
2022-09-23T12:33:16.899Z,19.02
2022-09-23T12:34:16.954Z,19.17
2022-09-23T12:35:16.867Z,19.27
2022-09-23T12:36:16.840Z,19.12
2022-09-23T12:37:16.852Z,19.21
2022-09-23T12:38:16.835Z,19.16
2022-09-23T12:39:16.832Z,19.28
2022-09-23T12:40:16.852Z,19.40
2022-09-23T12:41:16.759Z,19.46
2022-09-23T12:42:16.760Z,19.40
2022-09-23T12:43:16.738Z,19.43
2022-09-23T12:44:16.739Z,19.43
2022-09-23T12:45:16.704Z,19.42
2022-09-23T12:46:16.715Z,19.46
2022-09-23T12:47:16.658Z,19.40
2022-09-23T12:48:16.652Z,19.57
2022-09-23T12:49:16.625Z,19.49
2022-09-23T12:50:18.446Z,19.46
2022-09-23T12:51:17.585Z,19.45
2022-09-23T12:52:16.576Z,19.38
2022-09-23T12:53:16.622Z,19.45
2022-09-23T12:54:16.543Z,19.47
2022-09-23T12:55:16.541Z,19.53
2022-09-23T12:56:16.507Z,19.60
2022-09-23T12:57:16.472Z,19.61
2022-09-23T12:58:16.492Z,19.71